Vista Bahia, Puerto Rico
Current Conditions -  °F | °C
As of 10:50 PM on Tuesday 25 Nov 2014 (Local Time) from TJPS Reporting Station
Few Clouds Few Clouds  
Wind Chill: 73°   Ceiling: Unl
Heat Index: 73°   Visibility: 10mi
Dew Point: 70°   Wind: 6mph
Humidity: 88%   Direction: 40°NE
Pressure: 29.98"   Gusts: NA
Location:  18.0112°N, 66.3514°W
Report Text: TJPS 260250Z 04005KT 10SM FEW030 23/21 A2998
Loading
Personal Weather Stations






























Interactive Weather Map New forecast layout! Learn more

10-Day Weather Forecast

Advertisements
Track Severe Weather on mobile